Accueil
METAR-TAF:

METAR-TAF

Aéroports :

Olive Branch Airport

Olive Branch, Mississippi, États-Unis

latitude: 34-58-44N, longitude: 089-47-13W, altitude: 122 m

Observation

Le bulletin a été fait il y a 18 minutes, à 22:50 UTC
Vent calme
Température 17°C
Humidité 39%
Pression 1020 hPa
Visibilité: 16.1 km
Nuages épars à une hauteur de 15000 ft
Nuages fragmentés à une hauteur de 25000 ft

METAR: KOLV 202250Z 00000KT 10SM SCT150 BKN250 17/03 A3012

Heure: 17:08 (23:08 UTC)


TAF: absent

Observations et prévisions météorologiques de plus de 4000 aéroports (messages METAR et TAF).

Les stations disponibles sont représentées par des disques jaunes et rouges sur la carte.

Passer la souris dessus pour voir le nom de la station.

Cliquer dessus pour voir les observations et prévisions météorologiques.

Pour changer de carte: cliquez sur les boutons verts avec une croix noire pour zoomer, sur le bouton vert avec un tiret pour effectuer un zoom arrière, ou sur les flèches vertes pour les cartes adjacentes.


METAR-TAF: